Terminal Aerodrome Forecast
Issued by NWS

Home | Current Version | Previous Version | Text Only | Print | Product List | Glossary On
Versions: 1 2 3 4 5 6 7 8 9 10 11 12 13 14 15
000
FTUS45 KVEF 200500
TAFBIH
TAF
KBIH 200529Z 2006/2106 14008KT P6SM SKC
     FM200800 33006KT 6SM FU FEW040
     FM201500 VRB03KT P6SM FEW110
     FM201900 16017G25KT P6SM FEW110 SCT250
     FM210300 16009KT P6SM BKN250=

USA.gov is the U.S. government's official web portal to all federal, state and local government web resources and services.